Time;durP1;ratioP1;P1;durP2;ratioP2;P2;SDS_P1;SDS_P2;PMS_P1;PMS_P2;Temp;Humidity;BMP_temperature;BMP_pressure;BME280_temperature;BME280_humidity;BME280_pressure;Samples;Min_cycle;Max_cycle;Signal;HPM_P1;HPM_P2
2023/06/24 00:00:58;;;;;;;;;;;;;;;23.49;65.67;101058.16;107533;1251;110467;-67
2023/06/24 00:03:37;;;;;;;;;;;;;;;23.48;65.31;101065.22;107539;1256;108938;-67
2023/06/24 00:06:06;;;;;;;;;;;;;;;23.46;64.27;101061.67;107481;1254;96622;-68
2023/06/24 00:08:36;;;;;;;;;;;;;;;23.43;63.52;101059.61;107592;1251;96354;-67
2023/06/24 00:11:04;;;;;;;;;;;;;;;23.41;62.63;101063.12;107600;1250;110367;-64
2023/06/24 00:13:33;;;;;;;;;;;;;;;23.38;62.19;101059.58;107563;1251;110262;-66
2023/06/24 00:16:01;;;;;;;;;;;;;;;23.39;61.69;101064.47;107502;1253;107500;-66
2023/06/24 00:18:29;;;;;;;;;;;;;;;23.38;61.50;101069.84;107548;1251;96468;-68
2023/06/24 00:20:58;;;;;;;;;;;;;;;23.39;61.42;101073.55;107572;1251;96376;-70
2023/06/24 00:23:27;;;;;;;;;;;;;;;23.39;61.24;101078.20;107557;1254;108922;-70
2023/06/24 00:25:56;;;;;;;;;;;;;;;23.39;61.10;101088.30;107524;1254;109305;-66
2023/06/24 00:28:24;;;;;;;;;;;;;;;23.38;60.94;101091.17;107533;1251;108296;-66
2023/06/24 00:30:52;;;;;;;;;;;;;;;23.36;60.80;101094.59;107574;1251;96357;-67
2023/06/24 00:33:21;;;;;;;;;;;;;;;23.23;60.73;101101.10;107555;1254;97152;-69
2023/06/24 00:35:51;;;;;;;;;;;;;;;23.13;60.76;101103.84;107538;1256;110498;-67
2023/06/24 00:38:19;;;;;;;;;;;;;;;23.06;61.10;101107.05;107540;1251;109753;-68
2023/06/24 00:40:47;;;;;;;;;;;;;;;23.01;61.03;101104.42;107502;1251;107530;-69
2023/06/24 00:43:16;;;;;;;;;;;;;;;23.01;61.01;101097.67;107583;1251;97027;-66
2023/06/24 00:45:48;;;;;;;;;;;;;;;23.04;61.06;101091.76;107533;1251;96575;-69
2023/06/24 00:48:17;;;;;;;;;;;;;;;23.06;61.02;101084.72;107435;1251;109864;-68
2023/06/24 00:50:45;;;;;;;;;;;;;;;23.09;60.86;101068.67;107528;1256;109207;-67
2023/06/24 00:53:13;;;;;;;;;;;;;;;23.12;60.81;101068.58;107500;1254;108446;-68
2023/06/24 00:55:42;;;;;;;;;;;;;;;23.17;60.74;101065.59;107558;1251;96465;-67
2023/06/24 00:58:10;;;;;;;;;;;;;;;23.21;60.74;101063.20;107496;1253;96458;-67
2023/06/24 01:00:38;;;;;;;;;;;;;;;23.26;60.64;101049.26;107543;1251;110656;-66
2023/06/24 01:03:08;;;;;;;;;;;;;;;23.32;60.63;101042.91;107570;1251;109869;-66
2023/06/24 01:05:38;;;;;;;;;;;;;;;23.36;60.63;101031.75;107503;1251;106602;-66
2023/06/24 01:08:09;;;;;;;;;;;;;;;23.39;60.38;101025.41;107486;1253;96476;-68
2023/06/24 01:10:37;;;;;;;;;;;;;;;23.42;60.43;101012.23;107596;1251;96471;-67
2023/06/24 01:13:05;;;;;;;;;;;;;;;23.43;60.21;101002.34;107718;1253;110982;-67
2023/06/24 01:15:35;;;;;;;;;;;;;;;23.42;60.22;100991.70;107529;1256;109664;-68
2023/06/24 01:18:21;;;;;;;;;;;;;;;23.38;60.12;100980.14;107544;1251;108335;-69
2023/06/24 01:21:04;;;;;;;;;;;;;;;23.37;60.10;100981.08;107480;1251;96565;-65
2023/06/24 01:23:48;;;;;;;;;;;;;;;23.39;60.09;101003.16;107565;1252;96358;-67
2023/06/24 01:26:29;;;;;;;;;;;;;;;23.35;60.39;101030.08;107571;1251;109919;-67
2023/06/24 01:29:06;;;;;;;;;;;;;;;23.20;60.97;101026.05;107595;1251;109697;-67
2023/06/24 01:31:41;;;;;;;;;;;;;;;23.10;61.14;101020.58;107541;1251;107416;-68
2023/06/24 01:34:22;;;;;;;;;;;;;;;23.10;60.93;101026.33;107559;1254;96557;-67
2023/06/24 01:36:59;;;;;;;;;;;;;;;23.10;61.02;101035.40;107574;1255;96465;-67
2023/06/24 01:39:28;;;;;;;;;;;;;;;23.11;60.70;101013.88;107567;1251;110338;-67
2023/06/24 01:42:03;;;;;;;;;;;;;;;23.16;61.05;101004.88;107566;1255;109288;-68
2023/06/24 01:44:32;;;;;;;;;;;;;;;23.20;60.88;101000.63;107517;1252;108933;-67
2023/06/24 01:47:02;;;;;;;;;;;;;;;23.23;60.83;100999.30;107597;1254;96498;-65
2023/06/24 01:49:33;;;;;;;;;;;;;;;23.25;61.05;100995.85;107521;1254;96487;-67
2023/06/24 01:52:03;;;;;;;;;;;;;;;23.28;61.00;100998.20;107657;1251;108631;-67
2023/06/24 01:54:34;;;;;;;;;;;;;;;23.30;61.28;100999.48;107534;1251;109771;-68
2023/06/24 01:57:04;;;;;;;;;;;;;;;23.30;61.26;100991.52;107463;1251;108417;-68
2023/06/24 01:59:33;;;;;;;;;;;;;;;23.32;61.36;100998.50;107610;1251;96590;-67
2023/06/24 02:02:03;;;;;;;;;;;;;;;23.30;61.44;101005.68;107550;1251;96408;-66
2023/06/24 02:04:32;;;;;;;;;;;;;;;23.26;61.74;101005.30;107508;1251;110738;-68
2023/06/24 02:07:01;;;;;;;;;;;;;;;23.23;62.60;100996.52;107577;1254;107373;-69
2023/06/24 02:09:32;;;;;;;;;;;;;;;23.22;63.19;100983.09;107498;1256;107644;-67
2023/06/24 02:12:02;;;;;;;;;;;;;;;23.23;63.19;100967.13;107521;1254;96578;-69
2023/06/24 02:14:32;;;;;;;;;;;;;;;23.23;63.54;100955.24;107577;1256;96402;-68
2023/06/24 02:17:03;;;;;;;;;;;;;;;23.22;63.66;100950.52;107574;1254;109900;-66
2023/06/24 02:19:36;;;;;;;;;;;;;;;23.20;63.59;100944.86;107623;1255;109406;-65
2023/06/24 02:22:09;;;;;;;;;;;;;;;23.19;63.64;100940.63;107467;1254;108943;-67
2023/06/24 02:24:38;;;;;;;;;;;;;;;23.17;63.23;100936.05;107548;1255;96469;-67
2023/06/24 02:27:08;;;;;;;;;;;;;;;23.17;63.20;100926.05;107640;1251;96365;-66
2023/06/24 02:29:37;;;;;;;;;;;;;;;23.17;63.17;100913.21;107546;1251;110035;-67
2023/06/24 02:32:06;;;;;;;;;;;;;;;23.18;63.05;100909.23;107502;1251;109636;-70
2023/06/24 02:34:34;;;;;;;;;;;;;;;23.18;62.99;100912.35;107469;1251;108149;-69
2023/06/24 02:37:03;;;;;;;;;;;;;;;23.17;62.88;100928.66;107500;1251;96465;-69
2023/06/24 02:39:32;;;;;;;;;;;;;;;23.10;63.66;100944.48;107544;1251;96471;-68
2023/06/24 02:42:01;;;;;;;;;;;;;;;22.98;65.20;100958.27;107570;1251;109803;-68
2023/06/24 02:44:41;;;;;;;;;;;;;;;22.84;66.76;100962.59;107527;1251;109083;-70
2023/06/24 02:47:17;;;;;;;;;;;;;;;22.76;67.81;100975.44;107540;1256;107704;-73
2023/06/24 02:49:47;;;;;;;;;;;;;;;22.72;68.21;100993.50;107513;1251;96555;-67
2023/06/24 02:52:15;;;;;;;;;;;;;;;22.73;68.58;100999.02;107528;1256;96559;-68
2023/06/24 02:54:44;;;;;;;;;;;;;;;22.75;68.80;100997.70;107477;1254;109489;-68
2023/06/24 02:57:39;;;;;;;;;;;;;;;22.76;70.25;100999.23;107509;1251;110044;-70
2023/06/24 03:00:27;;;;;;;;;;;;;;;22.69;70.20;100995.23;107577;1251;108395;-69
2023/06/24 03:03:18;;;;;;;;;;;;;;;22.70;69.39;100992.18;107491;1254;96501;-70
2023/06/24 03:06:02;;;;;;;;;;;;;;;22.76;69.07;100989.70;107507;1251;96399;-68
2023/06/24 03:08:31;;;;;;;;;;;;;;;22.86;69.06;100983.56;107570;1251;110464;-68
2023/06/24 03:11:03;;;;;;;;;;;;;;;22.95;69.41;100982.54;107516;1251;110270;-69
2023/06/24 03:13:41;;;;;;;;;;;;;;;23.01;69.52;101004.02;107501;1255;107050;-67
2023/06/24 03:16:28;;;;;;;;;;;;;;;22.95;70.13;101012.27;107441;1254;96486;-69
2023/06/24 03:19:08;;;;;;;;;;;;;;;22.92;69.45;100990.38;107527;1255;96531;-66
2023/06/24 03:21:36;;;;;;;;;;;;;;;23.01;69.19;100994.98;107606;1254;110601;-66
2023/06/24 03:24:12;;;;;;;;;;;;;;;23.10;69.54;101003.63;107588;1254;110129;-66
2023/06/24 03:26:41;;;;;;;;;;;;;;;23.10;69.62;100993.19;107508;1251;108273;-67
2023/06/24 03:29:12;;;;;;;;;;;;;;;23.15;69.13;100980.52;107554;1251;96495;-65
2023/06/24 03:31:47;;;;;;;;;;;;;;;23.26;68.91;100981.36;107555;1253;96488;-67
2023/06/24 03:34:18;;;;;;;;;;;;;;;23.34;69.09;100991.05;107580;1254;107927;-66
2023/06/24 03:36:46;;;;;;;;;;;;;;;23.42;68.98;100989.42;107523;1251;109880;-66
2023/06/24 03:39:17;;;;;;;;;;;;;;;23.50;69.27;100979.38;107597;1251;108103;-70
2023/06/24 03:41:53;;;;;;;;;;;;;;;23.59;68.65;100987.84;107494;1254;96490;-66
2023/06/24 03:44:22;;;;;;;;;;;;;;;23.68;68.60;100988.67;107531;1251;96461;-65
2023/06/24 03:46:52;;;;;;;;;;;;;;;23.75;68.28;100990.77;107552;1253;110349;-67
2023/06/24 03:49:21;;;;;;;;;;;;;;;23.84;68.26;101002.89;107568;1257;109533;-70
2023/06/24 03:51:49;;;;;;;;;;;;;;;23.92;68.21;101017.55;107547;1252;108170;-66
2023/06/24 03:54:18;;;;;;;;;;;;;;;23.92;67.93;101011.60;107475;1254;96482;-66
2023/06/24 03:56:46;;;;;;;;;;;;;;;23.93;67.55;101007.59;107555;1254;96554;-68
2023/06/24 03:59:14;;;;;;;;;;;;;;;24.02;67.55;101014.95;107529;1254;109095;-68
2023/06/24 04:01:42;;;;;;;;;;;;;;;24.11;67.77;101021.29;107515;1251;109673;-69
2023/06/24 04:04:11;;;;;;;;;;;;;;;24.11;67.56;101022.18;107513;1256;108559;-66
2023/06/24 04:06:39;;;;;;;;;;;;;;;24.17;67.49;101019.14;107440;1250;96513;-68
2023/06/24 04:09:09;;;;;;;;;;;;;;;24.22;67.91;101027.57;107522;1256;96574;-68
2023/06/24 04:11:38;;;;;;;;;;;;;;;24.22;67.64;101024.27;107508;1256;109920;-68
2023/06/24 04:14:06;;;;;;;;;;;;;;;24.24;67.56;101016.38;107490;1251;110531;-68
2023/06/24 04:16:35;;;;;;;;;;;;;;;24.32;67.35;101016.26;107490;1252;108037;-68
2023/06/24 04:19:03;;;;;;;;;;;;;;;24.43;67.44;101019.22;107509;1254;96485;-69
2023/06/24 04:21:32;;;;;;;;;;;;;;;24.47;68.16;101021.73;107521;1254;96376;-68
2023/06/24 04:24:00;;;;;;;;;;;;;;;24.44;68.48;101012.20;107580;1256;110939;-67
2023/06/24 04:26:29;;;;;;;;;;;;;;;24.39;69.01;101011.50;107505;1254;109541;-67
2023/06/24 04:28:57;;;;;;;;;;;;;;;24.35;68.89;101028.28;107496;1254;108199;-67
2023/06/24 04:31:26;;;;;;;;;;;;;;;24.30;68.74;101048.20;107490;1251;96507;-66
2023/06/24 04:33:54;;;;;;;;;;;;;;;24.27;69.37;101057.65;107505;1255;96561;-66
2023/06/24 04:36:22;;;;;;;;;;;;;;;24.21;69.47;101065.04;107385;1254;110469;-68
2023/06/24 04:38:51;;;;;;;;;;;;;;;24.17;69.41;101072.08;107509;1259;109649;-66
2023/06/24 04:41:19;;;;;;;;;;;;;;;24.13;69.19;101082.92;107492;1254;106815;-67
2023/06/24 04:43:48;;;;;;;;;;;;;;;24.07;69.45;101100.50;107484;1251;96356;-66
2023/06/24 04:46:16;;;;;;;;;;;;;;;24.05;69.14;101109.10;107531;1251;96487;-67
2023/06/24 04:48:45;;;;;;;;;;;;;;;24.01;68.76;101123.73;107604;1256;110282;-66
2023/06/24 04:51:13;;;;;;;;;;;;;;;24.03;68.78;101127.15;107495;1251;110143;-66
2023/06/24 04:53:41;;;;;;;;;;;;;;;24.04;68.56;101130.36;107452;1251;108250;-67
2023/06/24 04:56:09;;;;;;;;;;;;;;;24.05;68.47;101134.12;107463;1251;96469;-66
2023/06/24 04:58:37;;;;;;;;;;;;;;;24.08;68.38;101129.20;107498;1251;99043;-65
2023/06/24 05:01:06;;;;;;;;;;;;;;;24.13;68.87;101127.36;107459;1251;110434;-68
2023/06/24 05:03:34;;;;;;;;;;;;;;;24.16;68.73;101135.72;107546;1251;110014;-67
2023/06/24 05:06:02;;;;;;;;;;;;;;;24.21;68.46;101139.52;107505;1256;108674;-68
2023/06/24 05:08:30;;;;;;;;;;;;;;;24.24;68.18;101141.06;107580;1252;96622;-67
2023/06/24 05:10:58;;;;;;;;;;;;;;;24.29;67.97;101139.98;107564;1255;96462;-69
2023/06/24 05:13:27;;;;;;;;;;;;;;;24.34;67.39;101142.73;107469;1251;109546;-68
2023/06/24 05:15:55;;;;;;;;;;;;;;;24.33;66.39;101140.21;107468;1252;108996;-67
2023/06/24 05:18:23;;;;;;;;;;;;;;;24.33;66.63;101144.22;107524;1254;108222;-66
2023/06/24 05:20:52;;;;;;;;;;;;;;;24.35;66.64;101151.19;107462;1254;96478;-66
2023/06/24 05:23:21;;;;;;;;;;;;;;;24.34;66.44;101158.65;107529;1256;96587;-67
2023/06/24 05:25:49;;;;;;;;;;;;;;;24.34;66.48;101154.73;107499;1257;109712;-66
2023/06/24 05:28:17;;;;;;;;;;;;;;;24.34;66.65;101157.47;107536;1254;110083;-67
2023/06/24 05:30:46;;;;;;;;;;;;;;;24.36;66.41;101159.14;107577;1256;107176;-67
2023/06/24 05:33:14;;;;;;;;;;;;;;;24.40;66.12;101160.94;107496;1250;96471;-67
2023/06/24 05:35:45;;;;;;;;;;;;;;;24.43;66.06;101155.86;107461;1251;96465;-68
2023/06/24 05:38:13;;;;;;;;;;;;;;;24.49;65.83;101156.49;107510;1251;108612;-70
2023/06/24 05:40:42;;;;;;;;;;;;;;;24.56;65.42;101150.79;107465;1254;109348;-67
2023/06/24 05:43:10;;;;;;;;;;;;;;;24.62;65.12;101142.84;107469;1254;107689;-68
2023/06/24 05:45:39;;;;;;;;;;;;;;;24.72;65.09;101146.83;107494;1251;96573;-68
2023/06/24 05:48:07;;;;;;;;;;;;;;;24.83;64.71;101161.15;107543;1251;98099;-68
2023/06/24 05:50:36;;;;;;;;;;;;;;;24.94;64.31;101165.40;107458;1251;110353;-69
2023/06/24 05:53:04;;;;;;;;;;;;;;;25.03;63.69;101160.09;107518;1251;109135;-67
2023/06/24 05:55:32;;;;;;;;;;;;;;;25.12;63.30;101157.35;107525;1256;107775;-68
2023/06/24 05:58:01;;;;;;;;;;;;;;;25.19;63.08;101153.18;107445;1251;96446;-67
2023/06/24 06:00:29;;;;;;;;;;;;;;;25.28;62.85;101151.70;107471;1257;96359;-67
2023/06/24 06:02:57;;;;;;;;;;;;;;;25.34;62.56;101148.20;107575;1253;110670;-68
2023/06/24 06:05:25;;;;;;;;;;;;;;;25.42;62.23;101144.75;107539;1251;109385;-66
2023/06/24 06:07:54;;;;;;;;;;;;;;;25.43;62.10;101144.61;107573;1256;107274;-66
2023/06/24 06:10:23;;;;;;;;;;;;;;;25.47;62.50;101144.20;107535;1254;96449;-66
2023/06/24 06:12:52;;;;;;;;;;;;;;;25.50;62.52;101134.64;107595;1254;96472;-65
2023/06/24 06:15:21;;;;;;;;;;;;;;;25.54;62.48;101122.87;107585;1254;110429;-66
2023/06/24 06:17:48;;;;;;;;;;;;;;;25.55;62.20;101111.87;107590;1256;109531;-65
2023/06/24 06:20:17;;;;;;;;;;;;;;;25.53;62.09;101104.39;107537;1251;108311;-67
2023/06/24 06:22:45;;;;;;;;;;;;;;;25.51;61.87;101106.30;107531;1251;96545;-67
2023/06/24 06:25:13;;;;;;;;;;;;;;;25.49;61.79;101103.11;107535;1251;96360;-66
2023/06/24 06:27:41;;;;;;;;;;;;;;;25.49;61.58;101098.59;107462;1250;110494;-69
2023/06/24 06:30:09;;;;;;;;;;;;;;;25.48;61.50;101096.81;107554;1251;109006;-65
2023/06/24 06:32:38;;;;;;;;;;;;;;;25.41;61.04;101090.60;107480;1251;108230;-66
2023/06/24 06:35:06;;;;;;;;;;;;;;;25.31;60.68;101089.15;107421;1257;96503;-68
2023/06/24 06:37:35;;;;;;;;;;;;;;;25.28;60.76;101091.35;107513;1256;96356;-67
2023/06/24 06:40:04;;;;;;;;;;;;;;;25.24;60.84;101088.70;107453;1254;111444;-67
2023/06/24 06:42:32;;;;;;;;;;;;;;;25.28;61.13;101088.67;107514;1251;109636;-67
2023/06/24 06:45:00;;;;;;;;;;;;;;;25.37;61.09;101084.56;107454;1256;107829;-65
2023/06/24 06:47:28;;;;;;;;;;;;;;;25.47;60.96;101093.39;107417;1251;96461;-66
2023/06/24 06:49:57;;;;;;;;;;;;;;;25.58;59.49;101106.45;107444;1251;96464;-67
2023/06/24 06:52:25;;;;;;;;;;;;;;;25.64;58.96;101108.86;107455;1251;109839;-67
2023/06/24 06:54:54;;;;;;;;;;;;;;;25.72;58.49;101102.58;107549;1251;109735;-68
2023/06/24 06:57:22;;;;;;;;;;;;;;;25.79;58.71;101097.91;107466;1251;108913;-69
2023/06/24 06:59:50;;;;;;;;;;;;;;;25.87;58.99;101092.45;107486;1251;96468;-66
2023/06/24 07:02:19;;;;;;;;;;;;;;;25.97;59.02;101088.70;107462;1255;96456;-67
2023/06/24 07:04:47;;;;;;;;;;;;;;;26.03;58.54;101083.38;107547;1256;110647;-70
2023/06/24 07:07:16;;;;;;;;;;;;;;;26.08;58.63;101073.47;107438;1251;109057;-68
2023/06/24 07:09:46;;;;;;;;;;;;;;;26.14;58.33;101066.34;107459;1251;106989;-67
2023/06/24 07:12:14;;;;;;;;;;;;;;;26.17;57.89;101061.96;107535;1253;96456;-68
2023/06/24 07:14:42;;;;;;;;;;;;;;;26.21;56.86;101061.78;107582;1257;96536;-68
2023/06/24 07:17:10;;;;;;;;;;;;;;;26.21;56.29;101062.24;107636;1255;110380;-67
2023/06/24 07:19:38;;;;;;;;;;;;;;;26.21;56.03;101056.39;107623;1256;108682;-67
2023/06/24 07:22:06;;;;;;;;;;;;;;;26.27;56.31;101052.62;107516;1252;107009;-67
2023/06/24 07:24:34;;;;;;;;;;;;;;;26.37;56.30;101051.78;107454;1252;96474;-66
2023/06/24 07:27:03;;;;;;;;;;;;;;;26.48;55.96;101050.74;107465;1251;96485;-67
2023/06/24 07:29:31;;;;;;;;;;;;;;;26.59;55.52;101052.86;107517;1251;112120;-68
2023/06/24 07:32:00;;;;;;;;;;;;;;;26.70;55.25;101052.68;107519;1251;110098;-67
2023/06/24 07:34:29;;;;;;;;;;;;;;;26.81;55.08;101048.12;107473;1251;108283;-67
2023/06/24 07:36:58;;;;;;;;;;;;;;;26.91;54.31;101051.47;107413;1257;96538;-67
2023/06/24 07:39:39;;;;;;;;;;;;;;;27.00;52.21;101051.02;107434;1254;96354;-67
2023/06/24 07:42:07;;;;;;;;;;;;;;;27.04;52.71;101050.35;107471;1252;110387;-67
2023/06/24 07:44:37;;;;;;;;;;;;;;;27.10;51.86;101046.34;107513;1251;109939;-67
2023/06/24 07:47:06;;;;;;;;;;;;;;;27.16;52.04;101045.33;107477;1251;107658;-67
2023/06/24 07:49:35;;;;;;;;;;;;;;;27.25;52.47;101044.53;107570;1256;96469;-66
2023/06/24 07:52:04;;;;;;;;;;;;;;;27.31;51.81;101045.94;107422;1256;96347;-65
2023/06/24 07:54:33;;;;;;;;;;;;;;;27.35;51.47;101040.76;107526;1256;110981;-70
2023/06/24 07:57:02;;;;;;;;;;;;;;;27.41;51.71;101044.61;107466;1251;109538;-67
2023/06/24 07:59:36;;;;;;;;;;;;;;;27.49;51.64;101042.60;107433;1251;108496;-69
2023/06/24 08:02:05;;;;;;;;;;;;;;;27.59;51.45;101034.56;106579;1251;1178369;-67
2023/06/24 08:04:33;;;;;;;;;;;;;;;27.69;51.43;101032.95;107484;1251;96479;-68
2023/06/24 08:07:02;;;;;;;;;;;;;;;27.79;51.64;101023.72;107463;1254;110682;-67
2023/06/24 08:09:31;;;;;;;;;;;;;;;27.93;50.77;101020.27;107425;1251;110077;-68
2023/06/24 08:12:10;;;;;;;;;;;;;;;28.02;50.40;101017.79;107440;1252;107637;-68
2023/06/24 08:14:42;;;;;;;;;;;;;;;28.09;50.35;101006.79;107510;1252;96468;-69
2023/06/24 08:17:31;;;;;;;;;;;;;;;28.18;50.29;101006.05;107418;1256;96435;-69
2023/06/24 08:20:00;;;;;;;;;;;;;;;28.31;50.27;101006.34;107464;1251;110632;-68
2023/06/24 08:22:29;;;;;;;;;;;;;;;28.47;49.45;100998.16;107468;1254;109661;-70
2023/06/24 08:25:01;;;;;;;;;;;;;;;28.58;49.54;100995.89;107440;1251;108634;-67
2023/06/24 08:27:29;;;;;;;;;;;;;;;28.70;49.41;100999.77;107489;1255;96828;-68
2023/06/24 08:29:57;;;;;;;;;;;;;;;28.83;48.45;100997.48;107504;1251;96359;-68
2023/06/24 08:32:25;;;;;;;;;;;;;;;28.96;48.64;100997.45;107521;1251;110148;-67
2023/06/24 08:34:54;;;;;;;;;;;;;;;29.09;47.38;100996.08;107471;1254;109944;-69
2023/06/24 08:37:22;;;;;;;;;;;;;;;29.21;47.31;100994.94;107511;1254;108270;-66
2023/06/24 08:39:50;;;;;;;;;;;;;;;29.33;46.45;100990.14;107503;1251;96497;-67
2023/06/24 08:42:18;;;;;;;;;;;;;;;29.46;46.78;100993.84;107471;1251;96477;-65
2023/06/24 08:44:47;;;;;;;;;;;;;;;29.54;46.84;100988.27;107471;1254;109775;-66
2023/06/24 08:47:16;;;;;;;;;;;;;;;29.63;46.92;100986.79;107371;1254;110117;-65
2023/06/24 08:49:48;;;;;;;;;;;;;;;29.77;46.95;100988.60;107518;1251;108428;-66
2023/06/24 08:52:16;;;;;;;;;;;;;;;29.89;45.34;100988.67;107449;1251;96469;-66
2023/06/24 08:54:46;;;;;;;;;;;;;;;29.94;45.08;100984.49;107495;1251;96477;-67
2023/06/24 08:57:15;;;;;;;;;;;;;;;30.03;44.36;100974.88;107487;1251;110844;-67
2023/06/24 08:59:43;;;;;;;;;;;;;;;30.15;44.08;100979.88;107442;1254;109084;-66
2023/06/24 09:02:11;;;;;;;;;;;;;;;30.35;44.37;100982.98;107470;1251;108271;-66
2023/06/24 09:04:40;;;;;;;;;;;;;;;30.65;43.91;100985.88;107423;1251;96610;-67
2023/06/24 09:07:08;;;;;;;;;;;;;;;31.01;43.47;100982.39;107573;1251;96444;-68
2023/06/24 09:09:44;;;;;;;;;;;;;;;31.44;41.43;100982.73;107519;1254;110783;-67
2023/06/24 09:12:14;;;;;;;;;;;;;;;31.78;41.57;100976.02;107603;1256;108796;-67
2023/06/24 09:14:47;;;;;;;;;;;;;;;32.08;41.89;100970.36;107573;1251;108382;-66
2023/06/24 09:17:16;;;;;;;;;;;;;;;32.22;41.14;100963.21;107495;1251;96483;-67
2023/06/24 09:19:44;;;;;;;;;;;;;;;32.25;40.64;100961.99;107503;1251;96600;-67
2023/06/24 09:22:18;;;;;;;;;;;;;;;32.24;41.03;100955.92;107547;1251;110576;-66
2023/06/24 09:24:48;;;;;;;;;;;;;;;32.23;41.20;100956.42;107483;1251;110003;-68
2023/06/24 09:27:21;;;;;;;;;;;;;;;32.31;41.06;100952.26;107510;1251;108644;-66
2023/06/24 09:29:50;;;;;;;;;;;;;;;32.38;40.62;100944.17;107411;1254;96522;-66
2023/06/24 09:32:18;;;;;;;;;;;;;;;32.42;40.37;100944.58;107471;1254;96622;-67
2023/06/24 09:34:48;;;;;;;;;;;;;;;32.44;40.56;100942.91;107432;1254;109657;-68
2023/06/24 09:37:21;;;;;;;;;;;;;;;32.51;41.05;100942.77;107458;1254;109417;-67
2023/06/24 09:39:49;;;;;;;;;;;;;;;32.49;39.74;100940.99;107532;1251;107303;-68
2023/06/24 09:42:20;;;;;;;;;;;;;;;32.56;39.58;100940.32;107549;1251;96507;-66
2023/06/24 09:44:55;;;;;;;;;;;;;;;32.98;39.88;100945.55;107529;1251;97190;-67
2023/06/24 09:47:24;;;;;;;;;;;;;;;33.45;39.09;100953.98;107541;1251;109829;-69
2023/06/24 09:49:54;;;;;;;;;;;;;;;33.75;37.12;100956.38;107430;1250;108871;-67
2023/06/24 09:52:23;;;;;;;;;;;;;;;33.89;37.49;100956.36;107426;1251;107414;-66
2023/06/24 09:54:54;;;;;;;;;;;;;;;34.17;37.17;100955.55;107406;1254;96532;-70
2023/06/24 09:57:26;;;;;;;;;;;;;;;34.34;36.42;100960.11;107443;1251;96573;-68
2023/06/24 09:59:56;;;;;;;;;;;;;;;34.68;36.97;100967.64;107424;1251;109855;-67
2023/06/24 10:02:24;;;;;;;;;;;;;;;34.97;35.60;100977.46;107430;1251;111119;-69
2023/06/24 10:04:54;;;;;;;;;;;;;;;35.06;34.91;100987.05;107430;1251;108400;-68
2023/06/24 10:07:22;;;;;;;;;;;;;;;35.20;34.42;100994.27;107452;1251;96468;-68
2023/06/24 10:09:51;;;;;;;;;;;;;;;35.30;34.10;100991.18;107476;1254;96561;-68
2023/06/24 10:12:19;;;;;;;;;;;;;;;35.50;34.43;100986.19;107462;1251;110880;-66
2023/06/24 10:14:47;;;;;;;;;;;;;;;35.91;34.17;100985.58;107464;1251;109411;-69
2023/06/24 10:17:15;;;;;;;;;;;;;;;36.36;34.50;100985.77;107421;1251;107814;-69
2023/06/24 10:19:44;;;;;;;;;;;;;;;36.80;32.76;100987.33;107404;1252;96487;-67
2023/06/24 10:22:13;;;;;;;;;;;;;;;36.84;32.03;100990.71;107438;1251;96363;-68
2023/06/24 10:24:42;;;;;;;;;;;;;;;37.03;32.12;100990.04;107578;1251;110607;-67
2023/06/24 10:27:15;;;;;;;;;;;;;;;37.51;31.57;100987.10;107541;1257;110388;-68
2023/06/24 10:29:47;;;;;;;;;;;;;;;38.03;31.06;100987.92;107468;1251;108179;-66
2023/06/24 10:32:15;;;;;;;;;;;;;;;38.49;29.28;100989.67;107481;1251;96579;-67
2023/06/24 10:34:44;;;;;;;;;;;;;;;38.81;28.81;100989.81;107460;1251;96519;-66
2023/06/24 10:37:24;;;;;;;;;;;;;;;39.22;29.01;100984.09;107493;1251;110919;-68
2023/06/24 10:39:57;;;;;;;;;;;;;;;39.74;28.13;100978.30;107533;1254;109474;-68
2023/06/24 10:42:25;;;;;;;;;;;;;;;40.23;27.70;100979.75;107613;1251;108634;-66
2023/06/24 10:44:55;;;;;;;;;;;;;;;40.76;27.63;100975.61;107574;1251;96469;-67
2023/06/24 10:47:24;;;;;;;;;;;;;;;40.96;27.13;100973.48;107546;1251;96745;-67
2023/06/24 10:49:52;;;;;;;;;;;;;;;40.84;26.87;100979.52;107470;1251;111031;-68
2023/06/24 10:52:21;;;;;;;;;;;;;;;41.20;26.47;100976.25;107490;1254;109423;-67
2023/06/24 10:54:51;;;;;;;;;;;;;;;41.47;25.61;100968.32;107393;1251;107879;-66
2023/06/24 10:57:23;;;;;;;;;;;;;;;40.88;26.07;100962.36;107454;1251;96471;-66
2023/06/24 10:59:53;;;;;;;;;;;;;;;40.23;26.64;100958.65;107460;1251;96373;-67
2023/06/24 11:02:27;;;;;;;;;;;;;;;40.32;27.04;100945.47;107450;1251;110535;-68
2023/06/24 11:04:58;;;;;;;;;;;;;;;40.57;25.62;100935.51;107463;1254;110160;-71
2023/06/24 11:07:30;;;;;;;;;;;;;;;40.44;25.85;100923.27;107394;1251;107726;-66
2023/06/24 11:10:01;;;;;;;;;;;;;;;40.75;26.56;100917.27;107537;1251;96494;-69
2023/06/24 11:12:36;;;;;;;;;;;;;;;41.09;25.33;100915.45;107408;1251;96553;-67
2023/06/24 11:15:06;;;;;;;;;;;;;;;41.03;24.73;100918.71;107437;1254;110544;-68
2023/06/24 11:17:55;;;;;;;;;;;;;;;41.25;25.84;100920.74;107380;1254;109355;-68
2023/06/24 11:20:24;;;;;;;;;;;;;;;41.83;25.37;100922.09;107517;1251;108011;-67
2023/06/24 11:22:53;;;;;;;;;;;;;;;42.38;24.58;100916.72;107538;1251;96863;-67
2023/06/24 11:25:22;;;;;;;;;;;;;;;42.76;24.06;100922.80;107439;1251;96491;-68
2023/06/24 11:27:53;;;;;;;;;;;;;;;43.27;24.25;100919.91;107488;1251;110350;-68
2023/06/24 11:30:22;;;;;;;;;;;;;;;43.77;24.30;100915.61;107424;1251;111262;-68
2023/06/24 11:32:50;;;;;;;;;;;;;;;44.26;23.39;100912.03;107379;1254;108477;-68
2023/06/24 11:35:19;;;;;;;;;;;;;;;44.63;22.60;100907.33;107552;1254;96444;-69
2023/06/24 11:37:48;;;;;;;;;;;;;;;44.80;21.24;100905.41;107474;1251;96372;-70
2023/06/24 11:40:19;;;;;;;;;;;;;;;44.69;20.79;100904.63;107468;1251;110444;-69
2023/06/24 11:42:50;;;;;;;;;;;;;;;44.55;22.21;100904.55;107607;1254;109063;-67
2023/06/24 11:45:20;;;;;;;;;;;;;;;44.86;21.38;100909.13;107480;1251;108043;-68
2023/06/24 11:47:48;;;;;;;;;;;;;;;44.81;21.62;100907.48;107422;1251;96459;-67
2023/06/24 11:50:17;;;;;;;;;;;;;;;45.02;22.06;100906.44;107459;1251;96468;-67
2023/06/24 11:52:48;;;;;;;;;;;;;;;45.37;21.53;100900.89;107449;1250;110591;-67
2023/06/24 11:55:24;;;;;;;;;;;;;;;45.68;20.26;100886.23;107461;1254;110487;-67
2023/06/24 11:57:52;;;;;;;;;;;;;;;45.63;19.91;100879.45;107421;1251;108604;-67
2023/06/24 12:00:24;;;;;;;;;;;;;;;45.52;20.08;100872.16;107508;1251;96488;-66
2023/06/24 12:02:57;;;;;;;;;;;;;;;45.24;20.53;100862.83;107496;1254;96487;-67
2023/06/24 12:05:33;;;;;;;;;;;;;;;45.37;20.36;100860.33;107430;1250;111450;-67
2023/06/24 12:08:02;;;;;;;;;;;;;;;45.75;20.40;100859.08;107409;1254;107970;-66
2023/06/24 12:10:33;;;;;;;;;;;;;;;46.01;19.29;100858.77;107538;1251;108623;-66
2023/06/24 12:13:02;;;;;;;;;;;;;;;45.90;19.36;100856.05;107453;1251;96455;-67
2023/06/24 12:15:30;;;;;;;;;;;;;;;45.90;18.82;100853.85;107491;1251;96440;-67
2023/06/24 12:17:59;;;;;;;;;;;;;;;45.56;19.21;100850.49;107526;1251;111574;-68
2023/06/24 12:20:28;;;;;;;;;;;;;;;45.55;19.78;100853.89;107501;1251;110126;-67
2023/06/24 12:23:06;;;;;;;;;;;;;;;45.70;19.93;100856.96;107496;1251;108072;-66
2023/06/24 12:25:34;;;;;;;;;;;;;;;45.98;20.68;100856.75;107461;1251;96466;-68
2023/06/24 12:28:02;;;;;;;;;;;;;;;46.55;20.09;100858.17;107471;1251;96311;-67
2023/06/24 12:30:30;;;;;;;;;;;;;;;46.85;20.00;100864.52;107436;1251;110821;-68
2023/06/24 12:32:59;;;;;;;;;;;;;;;47.43;19.41;100859.95;107511;1251;110148;-66
2023/06/24 12:35:28;;;;;;;;;;;;;;;47.93;18.89;100861.98;107469;1251;107743;-67